sensor_id;sensor_type;location;lat;lon;timestamp;temperature;humidity
55036;DHT22;40936;53.008;6.556;2022-07-04T00:00:16;16.10;99.90
55036;DHT22;40936;53.008;6.556;2022-07-04T00:02:44;16.00;99.90
55036;DHT22;40936;53.008;6.556;2022-07-04T00:05:11;16.10;99.90
55036;DHT22;40936;53.008;6.556;2022-07-04T00:07:42;16.00;99.90
55036;DHT22;40936;53.008;6.556;2022-07-04T00:10:10;16.10;99.90
55036;DHT22;40936;53.008;6.556;2022-07-04T00:12:36;16.00;99.90
55036;DHT22;40936;53.008;6.556;2022-07-04T00:15:03;16.00;99.90
55036;DHT22;40936;53.008;6.556;2022-07-04T00:17:29;16.10;99.90
55036;DHT22;40936;53.008;6.556;2022-07-04T00:19:55;16.10;99.90
55036;DHT22;40936;53.008;6.556;2022-07-04T00:22:21;15.90;99.90
55036;DHT22;40936;53.008;6.556;2022-07-04T00:24:47;15.90;99.90
55036;DHT22;40936;53.008;6.556;2022-07-04T00:27:13;16.00;99.90
55036;DHT22;40936;53.008;6.556;2022-07-04T00:29:38;15.90;99.90
55036;DHT22;40936;53.008;6.556;2022-07-04T00:32:04;15.90;99.90
55036;DHT22;40936;53.008;6.556;2022-07-04T00:34:30;15.90;99.90
55036;DHT22;40936;53.008;6.556;2022-07-04T00:36:56;16.00;99.90
55036;DHT22;40936;53.008;6.556;2022-07-04T00:39:22;15.90;99.90
55036;DHT22;40936;53.008;6.556;2022-07-04T00:41:47;15.90;99.90
55036;DHT22;40936;53.008;6.556;2022-07-04T00:44:13;15.90;99.90
55036;DHT22;40936;53.008;6.556;2022-07-04T00:46:45;15.90;99.90
55036;DHT22;40936;53.008;6.556;2022-07-04T00:49:12;16.00;99.90
55036;DHT22;40936;53.008;6.556;2022-07-04T00:51:39;15.90;99.90
55036;DHT22;40936;53.008;6.556;2022-07-04T00:54:07;16.00;99.90
55036;DHT22;40936;53.008;6.556;2022-07-04T00:56:35;15.90;99.90
55036;DHT22;40936;53.008;6.556;2022-07-04T00:59:01;16.00;99.90
55036;DHT22;40936;53.008;6.556;2022-07-04T01:01:27;16.10;99.90
55036;DHT22;40936;53.008;6.556;2022-07-04T01:03:53;16.00;99.90
55036;DHT22;40936;53.008;6.556;2022-07-04T01:06:19;16.00;99.90
55036;DHT22;40936;53.008;6.556;2022-07-04T01:08:46;16.00;99.90
55036;DHT22;40936;53.008;6.556;2022-07-04T01:11:12;16.20;99.90
55036;DHT22;40936;53.008;6.556;2022-07-04T01:13:38;16.10;99.90
55036;DHT22;40936;53.008;6.556;2022-07-04T01:16:06;16.10;99.90
55036;DHT22;40936;53.008;6.556;2022-07-04T01:18:32;16.00;99.90
55036;DHT22;40936;53.008;6.556;2022-07-04T01:20:58;16.10;99.90
55036;DHT22;40936;53.008;6.556;2022-07-04T01:23:23;16.10;99.90
55036;DHT22;40936;53.008;6.556;2022-07-04T01:25:49;16.20;99.90
55036;DHT22;40936;53.008;6.556;2022-07-04T01:28:20;16.20;99.90
55036;DHT22;40936;53.008;6.556;2022-07-04T01:30:46;16.20;99.90
55036;DHT22;40936;53.008;6.556;2022-07-04T01:33:12;16.10;99.90
55036;DHT22;40936;53.008;6.556;2022-07-04T01:35:37;16.20;99.90
55036;DHT22;40936;53.008;6.556;2022-07-04T01:38:04;16.30;99.90
55036;DHT22;40936;53.008;6.556;2022-07-04T01:40:29;16.20;99.90
55036;DHT22;40936;53.008;6.556;2022-07-04T01:42:55;16.20;99.90
55036;DHT22;40936;53.008;6.556;2022-07-04T01:45:21;16.30;99.90
55036;DHT22;40936;53.008;6.556;2022-07-04T01:47:47;16.30;99.90
55036;DHT22;40936;53.008;6.556;2022-07-04T01:50:13;16.30;99.90
55036;DHT22;40936;53.008;6.556;2022-07-04T01:52:39;16.30;99.90
55036;DHT22;40936;53.008;6.556;2022-07-04T01:55:06;16.30;99.90
55036;DHT22;40936;53.008;6.556;2022-07-04T01:59:59;16.30;99.90
55036;DHT22;40936;53.008;6.556;2022-07-04T02:02:43;16.30;99.90
55036;DHT22;40936;53.008;6.556;2022-07-04T02:05:09;16.30;99.90
55036;DHT22;40936;53.008;6.556;2022-07-04T02:07:34;16.30;99.90
55036;DHT22;40936;53.008;6.556;2022-07-04T02:10:00;16.20;99.90
55036;DHT22;40936;53.008;6.556;2022-07-04T02:12:26;16.30;99.90
55036;DHT22;40936;53.008;6.556;2022-07-04T02:15:10;16.30;99.90
55036;DHT22;40936;53.008;6.556;2022-07-04T02:17:36;16.30;99.90
55036;DHT22;40936;53.008;6.556;2022-07-04T02:20:03;16.40;99.90
55036;DHT22;40936;53.008;6.556;2022-07-04T02:22:30;16.40;99.90
55036;DHT22;40936;53.008;6.556;2022-07-04T02:24:56;16.30;99.90
55036;DHT22;40936;53.008;6.556;2022-07-04T02:27:22;16.40;99.90
55036;DHT22;40936;53.008;6.556;2022-07-04T02:29:48;16.30;99.90
55036;DHT22;40936;53.008;6.556;2022-07-04T02:32:14;16.40;99.90
55036;DHT22;40936;53.008;6.556;2022-07-04T02:34:39;16.40;99.90
55036;DHT22;40936;53.008;6.556;2022-07-04T02:37:06;16.40;99.90
55036;DHT22;40936;53.008;6.556;2022-07-04T02:39:32;16.40;99.90
55036;DHT22;40936;53.008;6.556;2022-07-04T02:41:57;16.40;99.90
55036;DHT22;40936;53.008;6.556;2022-07-04T02:44:23;16.40;99.90
55036;DHT22;40936;53.008;6.556;2022-07-04T02:46:49;16.50;99.90
55036;DHT22;40936;53.008;6.556;2022-07-04T02:49:15;16.50;99.90
55036;DHT22;40936;53.008;6.556;2022-07-04T02:51:41;16.50;99.90
55036;DHT22;40936;53.008;6.556;2022-07-04T02:54:07;16.50;99.90
55036;DHT22;40936;53.008;6.556;2022-07-04T02:56:33;16.30;99.90
55036;DHT22;40936;53.008;6.556;2022-07-04T02:58:59;16.50;99.90
55036;DHT22;40936;53.008;6.556;2022-07-04T03:01:25;16.40;99.90
55036;DHT22;40936;53.008;6.556;2022-07-04T03:03:50;16.40;99.90
55036;DHT22;40936;53.008;6.556;2022-07-04T03:06:17;16.50;99.90
55036;DHT22;40936;53.008;6.556;2022-07-04T03:08:43;16.60;99.90
55036;DHT22;40936;53.008;6.556;2022-07-04T03:11:09;16.40;99.90
55036;DHT22;40936;53.008;6.556;2022-07-04T03:13:36;16.50;99.90
55036;DHT22;40936;53.008;6.556;2022-07-04T03:16:02;17.20;99.90
55036;DHT22;40936;53.008;6.556;2022-07-04T03:18:28;16.50;99.90
55036;DHT22;40936;53.008;6.556;2022-07-04T03:20:54;16.50;99.90
55036;DHT22;40936;53.008;6.556;2022-07-04T03:23:20;16.60;99.90
55036;DHT22;40936;53.008;6.556;2022-07-04T03:25:46;16.60;99.90
55036;DHT22;40936;53.008;6.556;2022-07-04T03:28:11;16.70;99.90
55036;DHT22;40936;53.008;6.556;2022-07-04T03:30:37;16.60;99.90
55036;DHT22;40936;53.008;6.556;2022-07-04T03:33:03;16.60;99.90
55036;DHT22;40936;53.008;6.556;2022-07-04T03:35:28;16.60;99.90
55036;DHT22;40936;53.008;6.556;2022-07-04T03:37:55;16.60;99.90
55036;DHT22;40936;53.008;6.556;2022-07-04T03:40:21;16.70;99.90
55036;DHT22;40936;53.008;6.556;2022-07-04T03:42:47;16.70;99.90
55036;DHT22;40936;53.008;6.556;2022-07-04T03:45:13;16.70;99.90
55036;DHT22;40936;53.008;6.556;2022-07-04T03:47:39;16.70;99.90
55036;DHT22;40936;53.008;6.556;2022-07-04T03:50:05;16.70;99.90
55036;DHT22;40936;53.008;6.556;2022-07-04T03:52:31;16.80;99.90
55036;DHT22;40936;53.008;6.556;2022-07-04T03:54:57;16.70;99.90
55036;DHT22;40936;53.008;6.556;2022-07-04T03:57:22;16.80;99.90
55036;DHT22;40936;53.008;6.556;2022-07-04T03:59:48;16.90;99.90
55036;DHT22;40936;53.008;6.556;2022-07-04T04:02:14;16.90;99.90
55036;DHT22;40936;53.008;6.556;2022-07-04T04:04:40;16.90;99.90
55036;DHT22;40936;53.008;6.556;2022-07-04T04:07:24;16.90;99.90
55036;DHT22;40936;53.008;6.556;2022-07-04T04:09:50;16.90;99.90
55036;DHT22;40936;53.008;6.556;2022-07-04T04:12:15;17.00;99.90
55036;DHT22;40936;53.008;6.556;2022-07-04T04:14:41;16.90;99.90
55036;DHT22;40936;53.008;6.556;2022-07-04T04:17:07;17.00;99.90
55036;DHT22;40936;53.008;6.556;2022-07-04T04:19:33;17.00;99.90
55036;DHT22;40936;53.008;6.556;2022-07-04T04:21:59;17.10;99.90
55036;DHT22;40936;53.008;6.556;2022-07-04T04:24:25;17.10;99.90
55036;DHT22;40936;53.008;6.556;2022-07-04T04:26:50;17.00;99.90
55036;DHT22;40936;53.008;6.556;2022-07-04T04:29:16;16.60;99.90
55036;DHT22;40936;53.008;6.556;2022-07-04T04:31:42;16.50;99.90
55036;DHT22;40936;53.008;6.556;2022-07-04T04:34:07;16.60;99.90
55036;DHT22;40936;53.008;6.556;2022-07-04T04:36:33;16.70;99.90
55036;DHT22;40936;53.008;6.556;2022-07-04T04:38:59;16.70;99.90
55036;DHT22;40936;53.008;6.556;2022-07-04T04:41:25;16.80;99.90
55036;DHT22;40936;53.008;6.556;2022-07-04T04:43:51;16.80;99.90
55036;DHT22;40936;53.008;6.556;2022-07-04T04:46:17;16.80;99.90
55036;DHT22;40936;53.008;6.556;2022-07-04T04:48:42;16.80;99.90
55036;DHT22;40936;53.008;6.556;2022-07-04T04:51:08;16.80;99.90
55036;DHT22;40936;53.008;6.556;2022-07-04T04:53:34;17.00;99.90
55036;DHT22;40936;53.008;6.556;2022-07-04T04:55:59;16.90;99.90
55036;DHT22;40936;53.008;6.556;2022-07-04T04:58:25;17.00;99.90
55036;DHT22;40936;53.008;6.556;2022-07-04T05:00:51;17.10;99.90
55036;DHT22;40936;53.008;6.556;2022-07-04T05:03:17;17.10;99.90
55036;DHT22;40936;53.008;6.556;2022-07-04T05:05:44;17.10;99.90
55036;DHT22;40936;53.008;6.556;2022-07-04T05:08:10;17.10;99.90
55036;DHT22;40936;53.008;6.556;2022-07-04T05:10:38;17.20;99.90
55036;DHT22;40936;53.008;6.556;2022-07-04T05:13:04;17.30;99.90
55036;DHT22;40936;53.008;6.556;2022-07-04T05:15:29;17.40;99.90
55036;DHT22;40936;53.008;6.556;2022-07-04T05:17:55;17.40;99.90
55036;DHT22;40936;53.008;6.556;2022-07-04T05:20:21;17.50;99.90
55036;DHT22;40936;53.008;6.556;2022-07-04T05:22:47;17.60;99.90
55036;DHT22;40936;53.008;6.556;2022-07-04T05:25:12;17.60;99.90
55036;DHT22;40936;53.008;6.556;2022-07-04T05:27:38;17.60;99.90
55036;DHT22;40936;53.008;6.556;2022-07-04T05:30:06;17.70;99.90
55036;DHT22;40936;53.008;6.556;2022-07-04T05:32:32;17.80;99.90
55036;DHT22;40936;53.008;6.556;2022-07-04T05:34:57;17.90;99.90
55036;DHT22;40936;53.008;6.556;2022-07-04T05:37:24;18.00;99.90
55036;DHT22;40936;53.008;6.556;2022-07-04T05:39:50;18.10;99.90
55036;DHT22;40936;53.008;6.556;2022-07-04T05:42:16;18.00;99.90
55036;DHT22;40936;53.008;6.556;2022-07-04T05:44:42;18.00;99.90
55036;DHT22;40936;53.008;6.556;2022-07-04T05:47:08;18.10;99.90
55036;DHT22;40936;53.008;6.556;2022-07-04T05:49:33;18.30;99.90
55036;DHT22;40936;53.008;6.556;2022-07-04T05:51:59;18.40;99.90
55036;DHT22;40936;53.008;6.556;2022-07-04T05:54:25;18.40;99.90
55036;DHT22;40936;53.008;6.556;2022-07-04T05:56:51;18.60;99.90
55036;DHT22;40936;53.008;6.556;2022-07-04T05:59:17;18.60;99.90
55036;DHT22;40936;53.008;6.556;2022-07-04T06:01:43;18.50;99.90
55036;DHT22;40936;53.008;6.556;2022-07-04T06:04:08;18.70;99.90
55036;DHT22;40936;53.008;6.556;2022-07-04T06:06:34;18.70;99.90
55036;DHT22;40936;53.008;6.556;2022-07-04T06:09:01;18.80;99.90
55036;DHT22;40936;53.008;6.556;2022-07-04T06:11:28;17.90;99.90
55036;DHT22;40936;53.008;6.556;2022-07-04T06:13:54;18.90;99.90
55036;DHT22;40936;53.008;6.556;2022-07-04T06:16:20;19.00;99.90
55036;DHT22;40936;53.008;6.556;2022-07-04T06:18:46;19.10;99.90
55036;DHT22;40936;53.008;6.556;2022-07-04T06:21:12;19.00;99.90
55036;DHT22;40936;53.008;6.556;2022-07-04T06:23:38;19.30;99.90
55036;DHT22;40936;53.008;6.556;2022-07-04T06:26:04;19.00;99.90
55036;DHT22;40936;53.008;6.556;2022-07-04T06:28:29;19.30;99.90
55036;DHT22;40936;53.008;6.556;2022-07-04T06:30:56;19.20;99.90
55036;DHT22;40936;53.008;6.556;2022-07-04T06:33:21;19.30;99.90
55036;DHT22;40936;53.008;6.556;2022-07-04T06:35:47;19.40;99.90
55036;DHT22;40936;53.008;6.556;2022-07-04T06:38:24;19.30;99.90
55036;DHT22;40936;53.008;6.556;2022-07-04T06:40:53;19.50;99.90
55036;DHT22;40936;53.008;6.556;2022-07-04T06:43:19;19.60;99.90
55036;DHT22;40936;53.008;6.556;2022-07-04T06:45:45;19.50;99.90
55036;DHT22;40936;53.008;6.556;2022-07-04T06:48:11;19.40;99.90
55036;DHT22;40936;53.008;6.556;2022-07-04T06:50:37;19.50;99.90
55036;DHT22;40936;53.008;6.556;2022-07-04T06:53:05;19.40;99.90
55036;DHT22;40936;53.008;6.556;2022-07-04T06:55:31;19.60;99.90
55036;DHT22;40936;53.008;6.556;2022-07-04T06:57:57;19.50;99.90
55036;DHT22;40936;53.008;6.556;2022-07-04T07:00:22;19.60;99.90
55036;DHT22;40936;53.008;6.556;2022-07-04T07:02:48;19.70;99.90
55036;DHT22;40936;53.008;6.556;2022-07-04T07:05:14;19.70;99.90
55036;DHT22;40936;53.008;6.556;2022-07-04T07:07:40;20.10;99.90
55036;DHT22;40936;53.008;6.556;2022-07-04T07:10:06;19.90;99.90
55036;DHT22;40936;53.008;6.556;2022-07-04T07:12:33;20.30;99.90
55036;DHT22;40936;53.008;6.556;2022-07-04T07:15:00;20.50;99.90
55036;DHT22;40936;53.008;6.556;2022-07-04T07:17:26;20.90;99.90
55036;DHT22;40936;53.008;6.556;2022-07-04T07:19:52;20.70;99.90
55036;DHT22;40936;53.008;6.556;2022-07-04T07:22:18;20.60;99.90
55036;DHT22;40936;53.008;6.556;2022-07-04T07:24:44;20.70;99.90
55036;DHT22;40936;53.008;6.556;2022-07-04T07:27:10;21.00;99.90
55036;DHT22;40936;53.008;6.556;2022-07-04T07:29:37;21.00;99.90
55036;DHT22;40936;53.008;6.556;2022-07-04T07:32:04;21.40;99.90
55036;DHT22;40936;53.008;6.556;2022-07-04T07:34:30;21.70;99.90
55036;DHT22;40936;53.008;6.556;2022-07-04T07:36:56;21.60;99.90
55036;DHT22;40936;53.008;6.556;2022-07-04T07:39:22;22.00;99.90
55036;DHT22;40936;53.008;6.556;2022-07-04T07:41:48;21.90;99.90
55036;DHT22;40936;53.008;6.556;2022-07-04T07:44:14;22.10;44.90
55036;DHT22;40936;53.008;6.556;2022-07-04T07:46:39;22.10;1.00
55036;DHT22;40936;53.008;6.556;2022-07-04T07:49:05;22.20;99.90
55036;DHT22;40936;53.008;6.556;2022-07-04T07:51:31;21.80;99.90
55036;DHT22;40936;53.008;6.556;2022-07-04T07:53:57;21.80;99.90
55036;DHT22;40936;53.008;6.556;2022-07-04T07:56:23;22.20;99.90
55036;DHT22;40936;53.008;6.556;2022-07-04T07:58:49;22.70;27.50
55036;DHT22;40936;53.008;6.556;2022-07-04T08:01:15;23.10;1.00
55036;DHT22;40936;53.008;6.556;2022-07-04T08:03:41;23.70;1.00
55036;DHT22;40936;53.008;6.556;2022-07-04T08:06:25;23.60;99.90
55036;DHT22;40936;53.008;6.556;2022-07-04T08:08:51;23.50;99.90
55036;DHT22;40936;53.008;6.556;2022-07-04T08:11:17;23.70;99.90
55036;DHT22;40936;53.008;6.556;2022-07-04T08:13:42;23.60;1.00
55036;DHT22;40936;53.008;6.556;2022-07-04T08:16:09;23.70;99.90
55036;DHT22;40936;53.008;6.556;2022-07-04T08:18:35;23.40;99.90
55036;DHT22;40936;53.008;6.556;2022-07-04T08:21:01;23.50;99.90
55036;DHT22;40936;53.008;6.556;2022-07-04T08:23:29;23.60;99.90
55036;DHT22;40936;53.008;6.556;2022-07-04T08:25:55;23.20;99.90
55036;DHT22;40936;53.008;6.556;2022-07-04T08:28:21;23.60;99.90
55036;DHT22;40936;53.008;6.556;2022-07-04T08:30:47;24.10;99.90
55036;DHT22;40936;53.008;6.556;2022-07-04T08:33:13;23.90;99.90
55036;DHT22;40936;53.008;6.556;2022-07-04T08:35:38;24.30;99.90
55036;DHT22;40936;53.008;6.556;2022-07-04T08:38:04;24.60;99.90
55036;DHT22;40936;53.008;6.556;2022-07-04T08:40:31;24.70;99.90
55036;DHT22;40936;53.008;6.556;2022-07-04T08:42:57;24.90;99.90
55036;DHT22;40936;53.008;6.556;2022-07-04T08:45:28;24.80;67.10
55036;DHT22;40936;53.008;6.556;2022-07-04T08:48:03;23.90;99.90
55036;DHT22;40936;53.008;6.556;2022-07-04T08:50:31;24.60;99.90
55036;DHT22;40936;53.008;6.556;2022-07-04T08:53:10;25.20;41.00
55036;DHT22;40936;53.008;6.556;2022-07-04T08:55:38;25.30;99.40
55036;DHT22;40936;53.008;6.556;2022-07-04T08:58:24;25.40;1.00
55036;DHT22;40936;53.008;6.556;2022-07-04T09:00:57;23.60;33.80
55036;DHT22;40936;53.008;6.556;2022-07-04T09:03:23;23.00;44.00
55036;DHT22;40936;53.008;6.556;2022-07-04T09:05:50;23.90;99.90
55036;DHT22;40936;53.008;6.556;2022-07-04T09:08:16;24.20;1.00
55036;DHT22;40936;53.008;6.556;2022-07-04T09:10:42;23.70;31.40
55036;DHT22;40936;53.008;6.556;2022-07-04T09:13:11;22.90;40.10
55036;DHT22;40936;53.008;6.556;2022-07-04T09:15:37;23.00;99.90
55036;DHT22;40936;53.008;6.556;2022-07-04T09:18:04;23.60;99.90
55036;DHT22;40936;53.008;6.556;2022-07-04T09:20:31;24.90;1.00
55036;DHT22;40936;53.008;6.556;2022-07-04T09:22:57;26.20;1.00
55036;DHT22;40936;53.008;6.556;2022-07-04T09:25:24;26.40;99.90
55036;DHT22;40936;53.008;6.556;2022-07-04T09:27:55;25.40;99.90
55036;DHT22;40936;53.008;6.556;2022-07-04T09:30:24;24.40;99.90
55036;DHT22;40936;53.008;6.556;2022-07-04T09:32:52;24.20;1.00
55036;DHT22;40936;53.008;6.556;2022-07-04T09:35:22;23.70;99.90
55036;DHT22;40936;53.008;6.556;2022-07-04T09:37:51;23.50;1.00
55036;DHT22;40936;53.008;6.556;2022-07-04T09:40:37;23.60;1.00
55036;DHT22;40936;53.008;6.556;2022-07-04T09:43:24;24.60;1.00
55036;DHT22;40936;53.008;6.556;2022-07-04T09:45:55;25.30;1.00
55036;DHT22;40936;53.008;6.556;2022-07-04T09:48:21;25.40;99.90
55036;DHT22;40936;53.008;6.556;2022-07-04T09:50:47;25.00;99.90
55036;DHT22;40936;53.008;6.556;2022-07-04T09:53:13;24.90;1.00
55036;DHT22;40936;53.008;6.556;2022-07-04T09:55:39;25.20;99.90
55036;DHT22;40936;53.008;6.556;2022-07-04T09:58:10;26.20;99.90
55036;DHT22;40936;53.008;6.556;2022-07-04T10:00:37;26.50;99.90
55036;DHT22;40936;53.008;6.556;2022-07-04T10:06:08;27.10;99.90
55036;DHT22;40936;53.008;6.556;2022-07-04T10:08:36;25.70;99.90
55036;DHT22;40936;53.008;6.556;2022-07-04T10:11:04;25.30;99.90
55036;DHT22;40936;53.008;6.556;2022-07-04T10:13:30;25.50;99.90
55036;DHT22;40936;53.008;6.556;2022-07-04T10:15:57;25.50;99.90
55036;DHT22;40936;53.008;6.556;2022-07-04T10:18:26;25.20;99.90
55036;DHT22;40936;53.008;6.556;2022-07-04T10:20:53;25.60;99.90
55036;DHT22;40936;53.008;6.556;2022-07-04T10:23:21;27.00;99.90
55036;DHT22;40936;53.008;6.556;2022-07-04T10:25:47;27.90;99.90
55036;DHT22;40936;53.008;6.556;2022-07-04T10:28:14;28.50;99.90
55036;DHT22;40936;53.008;6.556;2022-07-04T10:30:40;29.70;99.90
55036;DHT22;40936;53.008;6.556;2022-07-04T10:33:08;29.80;99.90
55036;DHT22;40936;53.008;6.556;2022-07-04T10:38:52;28.10;99.90
55036;DHT22;40936;53.008;6.556;2022-07-04T10:41:20;26.70;99.90
55036;DHT22;40936;53.008;6.556;2022-07-04T10:44:14;26.30;99.90
55036;DHT22;40936;53.008;6.556;2022-07-04T10:46:48;26.20;99.90
55036;DHT22;40936;53.008;6.556;2022-07-04T10:51:47;24.60;99.90
55036;DHT22;40936;53.008;6.556;2022-07-04T10:54:33;24.60;99.90
55036;DHT22;40936;53.008;6.556;2022-07-04T11:02:27;24.00;99.90
55036;DHT22;40936;53.008;6.556;2022-07-04T11:18:00;25.50;99.90
55036;DHT22;40936;53.008;6.556;2022-07-04T11:20:28;25.90;99.90
55036;DHT22;40936;53.008;6.556;2022-07-04T11:23:11;25.90;99.90
55036;DHT22;40936;53.008;6.556;2022-07-04T11:25:44;25.80;99.90
55036;DHT22;40936;53.008;6.556;2022-07-04T11:28:29;25.70;99.90
55036;DHT22;40936;53.008;6.556;2022-07-04T11:30:58;25.20;99.90
55036;DHT22;40936;53.008;6.556;2022-07-04T11:33:28;24.40;99.90
55036;DHT22;40936;53.008;6.556;2022-07-04T11:36:14;24.80;99.90
55036;DHT22;40936;53.008;6.556;2022-07-04T11:38:55;25.20;99.90
55036;DHT22;40936;53.008;6.556;2022-07-04T11:41:36;25.60;99.90
55036;DHT22;40936;53.008;6.556;2022-07-04T11:44:23;25.00;99.90
55036;DHT22;40936;53.008;6.556;2022-07-04T11:49:37;25.30;99.90
55036;DHT22;40936;53.008;6.556;2022-07-04T11:52:06;24.90;99.90
55036;DHT22;40936;53.008;6.556;2022-07-04T11:54:31;25.00;99.90
55036;DHT22;40936;53.008;6.556;2022-07-04T11:57:24;24.90;99.90
55036;DHT22;40936;53.008;6.556;2022-07-04T12:02:32;25.00;99.90
55036;DHT22;40936;53.008;6.556;2022-07-04T12:04:59;25.90;99.90
55036;DHT22;40936;53.008;6.556;2022-07-04T12:07:27;26.30;99.90
55036;DHT22;40936;53.008;6.556;2022-07-04T12:09:53;25.90;99.90
55036;DHT22;40936;53.008;6.556;2022-07-04T12:12:20;25.60;99.90
55036;DHT22;40936;53.008;6.556;2022-07-04T12:17:35;26.20;99.90
55036;DHT22;40936;53.008;6.556;2022-07-04T12:20:10;25.00;99.90
55036;DHT22;40936;53.008;6.556;2022-07-04T12:22:42;24.90;99.90
55036;DHT22;40936;53.008;6.556;2022-07-04T12:25:30;25.30;99.90
55036;DHT22;40936;53.008;6.556;2022-07-04T12:27:59;24.90;99.90
55036;DHT22;40936;53.008;6.556;2022-07-04T12:30:52;25.40;99.90
55036;DHT22;40936;53.008;6.556;2022-07-04T12:33:24;25.60;99.90
55036;DHT22;40936;53.008;6.556;2022-07-04T12:35:52;25.50;99.90
55036;DHT22;40936;53.008;6.556;2022-07-04T12:41:06;24.90;99.90
55036;DHT22;40936;53.008;6.556;2022-07-04T12:48:52;24.60;99.90
55036;DHT22;40936;53.008;6.556;2022-07-04T12:53:50;23.80;99.90
55036;DHT22;40936;53.008;6.556;2022-07-04T12:56:39;23.90;99.90
55036;DHT22;40936;53.008;6.556;2022-07-04T12:59:07;23.50;99.90
55036;DHT22;40936;53.008;6.556;2022-07-04T13:01:35;23.40;99.90
55036;DHT22;40936;53.008;6.556;2022-07-04T13:04:01;23.50;99.90
55036;DHT22;40936;53.008;6.556;2022-07-04T13:06:30;23.40;99.90
55036;DHT22;40936;53.008;6.556;2022-07-04T13:08:56;23.50;99.90
55036;DHT22;40936;53.008;6.556;2022-07-04T13:11:23;23.50;99.90
55036;DHT22;40936;53.008;6.556;2022-07-04T13:14:07;23.60;99.90
55036;DHT22;40936;53.008;6.556;2022-07-04T13:16:34;23.10;99.90
55036;DHT22;40936;53.008;6.556;2022-07-04T13:19:00;23.20;99.90
55036;DHT22;40936;53.008;6.556;2022-07-04T13:21:26;22.90;99.90
55036;DHT22;40936;53.008;6.556;2022-07-04T13:23:54;23.10;99.90
55036;DHT22;40936;53.008;6.556;2022-07-04T13:26:20;23.00;99.90
55036;DHT22;40936;53.008;6.556;2022-07-04T13:28:46;22.90;99.90
55036;DHT22;40936;53.008;6.556;2022-07-04T13:31:12;22.70;99.90
55036;DHT22;40936;53.008;6.556;2022-07-04T13:33:38;22.90;99.90
55036;DHT22;40936;53.008;6.556;2022-07-04T13:36:04;22.90;99.90
55036;DHT22;40936;53.008;6.556;2022-07-04T13:38:30;22.80;99.90
55036;DHT22;40936;53.008;6.556;2022-07-04T13:40:55;22.30;99.90
55036;DHT22;40936;53.008;6.556;2022-07-04T13:43:23;22.80;99.90
55036;DHT22;40936;53.008;6.556;2022-07-04T13:45:49;22.80;99.90
55036;DHT22;40936;53.008;6.556;2022-07-04T13:48:16;22.60;99.90
55036;DHT22;40936;53.008;6.556;2022-07-04T13:50:42;22.80;99.90
55036;DHT22;40936;53.008;6.556;2022-07-04T13:53:09;22.80;99.90
55036;DHT22;40936;53.008;6.556;2022-07-04T13:55:35;23.00;99.90
55036;DHT22;40936;53.008;6.556;2022-07-04T13:58:02;22.80;99.90
55036;DHT22;40936;53.008;6.556;2022-07-04T14:00:28;22.80;99.90
55036;DHT22;40936;53.008;6.556;2022-07-04T14:02:54;23.00;99.90
55036;DHT22;40936;53.008;6.556;2022-07-04T14:05:20;23.00;99.90
55036;DHT22;40936;53.008;6.556;2022-07-04T14:07:45;22.90;99.90
55036;DHT22;40936;53.008;6.556;2022-07-04T14:10:11;23.00;99.90
55036;DHT22;40936;53.008;6.556;2022-07-04T14:12:37;23.00;99.90
55036;DHT22;40936;53.008;6.556;2022-07-04T14:15:03;23.00;99.90
55036;DHT22;40936;53.008;6.556;2022-07-04T14:17:29;23.00;99.90
55036;DHT22;40936;53.008;6.556;2022-07-04T14:19:55;23.20;99.90
55036;DHT22;40936;53.008;6.556;2022-07-04T14:22:21;23.20;99.90
55036;DHT22;40936;53.008;6.556;2022-07-04T14:24:47;23.20;99.90
55036;DHT22;40936;53.008;6.556;2022-07-04T14:27:13;23.20;99.90
55036;DHT22;40936;53.008;6.556;2022-07-04T14:29:39;23.10;99.90
55036;DHT22;40936;53.008;6.556;2022-07-04T14:32:07;23.10;99.90
55036;DHT22;40936;53.008;6.556;2022-07-04T14:34:33;23.30;99.90
55036;DHT22;40936;53.008;6.556;2022-07-04T14:36:58;23.50;99.90
55036;DHT22;40936;53.008;6.556;2022-07-04T14:39:24;23.40;99.90
55036;DHT22;40936;53.008;6.556;2022-07-04T14:41:50;23.10;99.90
55036;DHT22;40936;53.008;6.556;2022-07-04T14:44:16;22.90;99.90
55036;DHT22;40936;53.008;6.556;2022-07-04T14:46:42;22.80;99.90
55036;DHT22;40936;53.008;6.556;2022-07-04T14:49:08;22.60;99.90
55036;DHT22;40936;53.008;6.556;2022-07-04T14:51:34;22.60;99.90
55036;DHT22;40936;53.008;6.556;2022-07-04T14:53:59;22.70;99.90
55036;DHT22;40936;53.008;6.556;2022-07-04T14:56:25;22.40;99.90
55036;DHT22;40936;53.008;6.556;2022-07-04T14:58:51;22.50;99.90
55036;DHT22;40936;53.008;6.556;2022-07-04T15:01:17;22.50;99.90
55036;DHT22;40936;53.008;6.556;2022-07-04T15:03:42;22.70;99.90
55036;DHT22;40936;53.008;6.556;2022-07-04T15:06:08;22.70;99.90
55036;DHT22;40936;53.008;6.556;2022-07-04T15:08:34;22.70;99.90
55036;DHT22;40936;53.008;6.556;2022-07-04T15:10:59;22.90;99.90
55036;DHT22;40936;53.008;6.556;2022-07-04T15:13:25;23.40;99.90
55036;DHT22;40936;53.008;6.556;2022-07-04T15:15:51;23.80;99.90
55036;DHT22;40936;53.008;6.556;2022-07-04T15:18:17;23.60;99.90
55036;DHT22;40936;53.008;6.556;2022-07-04T15:20:43;23.40;99.90
55036;DHT22;40936;53.008;6.556;2022-07-04T15:23:27;23.50;99.90
55036;DHT22;40936;53.008;6.556;2022-07-04T15:26:11;23.80;99.90
55036;DHT22;40936;53.008;6.556;2022-07-04T15:28:37;23.80;99.90
55036;DHT22;40936;53.008;6.556;2022-07-04T15:31:03;23.40;99.90
55036;DHT22;40936;53.008;6.556;2022-07-04T15:33:29;23.20;99.90
55036;DHT22;40936;53.008;6.556;2022-07-04T15:35:56;22.90;99.90
55036;DHT22;40936;53.008;6.556;2022-07-04T15:38:22;22.90;99.90
55036;DHT22;40936;53.008;6.556;2022-07-04T15:40:48;22.80;99.90
55036;DHT22;40936;53.008;6.556;2022-07-04T15:43:14;22.90;99.90
55036;DHT22;40936;53.008;6.556;2022-07-04T15:45:40;23.00;99.90
55036;DHT22;40936;53.008;6.556;2022-07-04T15:48:06;22.90;99.90
55036;DHT22;40936;53.008;6.556;2022-07-04T15:50:31;22.70;99.90
55036;DHT22;40936;53.008;6.556;2022-07-04T15:52:57;22.40;99.90
55036;DHT22;40936;53.008;6.556;2022-07-04T15:55:23;22.40;99.90
55036;DHT22;40936;53.008;6.556;2022-07-04T15:57:49;22.50;99.90
55036;DHT22;40936;53.008;6.556;2022-07-04T16:00:15;22.70;99.90
55036;DHT22;40936;53.008;6.556;2022-07-04T16:02:41;22.70;99.90
55036;DHT22;40936;53.008;6.556;2022-07-04T16:05:07;22.50;99.90
55036;DHT22;40936;53.008;6.556;2022-07-04T16:07:34;22.60;99.90
55036;DHT22;40936;53.008;6.556;2022-07-04T16:10:00;22.70;99.90
55036;DHT22;40936;53.008;6.556;2022-07-04T16:12:26;22.60;99.90
55036;DHT22;40936;53.008;6.556;2022-07-04T16:14:52;22.40;99.90
55036;DHT22;40936;53.008;6.556;2022-07-04T16:17:18;22.10;99.90
55036;DHT22;40936;53.008;6.556;2022-07-04T16:19:43;22.10;99.90
55036;DHT22;40936;53.008;6.556;2022-07-04T16:22:09;21.90;99.90